Time;durP1;ratioP1;P1;durP2;ratioP2;P2;SDS_P1;SDS_P2;PMS_P1;PMS_P2;Temp;Humidity;BMP_temperature;BMP_pressure;BME280_temperature;BME280_humidity;BME280_pressure;Samples;Min_cycle;Max_cycle;Signal;HPM_P1;HPM_P2
2023/07/13 00:01:17;;;;;;;;;;;;;;;27.06;39.07;100613.78;2265184;78;50332;-76
2023/07/13 00:04:20;;;;;;;;;;;;;;;27.06;38.98;100614.33;2265049;78;51656;-75
2023/07/13 00:07:21;;;;;;;;;;;;;;;27.04;39.12;100613.73;2264970;78;50737;-74
2023/07/13 00:10:23;;;;;;;;;;;;;;;27.03;39.08;100616.98;2232593;78;52523;-76
2023/07/13 00:13:24;;;;;;;;;;;;;;;27.03;39.03;100622.42;2245761;78;51609;-76
2023/07/13 00:16:26;;;;;;;;;;;;;;;27.03;38.96;100629.21;2264801;78;52117;-77
2023/07/13 00:19:28;;;;;;;;;;;;;;;27.04;38.88;100621.88;2277278;77;50752;-75
2023/07/13 00:22:29;;;;;;;;;;;;;;;27.03;39.03;100628.39;2228517;78;52508;-76
2023/07/13 00:25:31;;;;;;;;;;;;;;;27.02;38.97;100620.75;2265113;78;51391;-76
2023/07/13 00:28:33;;;;;;;;;;;;;;;27.02;38.82;100632.97;2232690;78;50837;-75
2023/07/13 00:31:35;;;;;;;;;;;;;;;27.01;39.03;100627.80;2265285;78;51494;-76
2023/07/13 00:34:38;;;;;;;;;;;;;;;27.02;38.82;100628.89;2232669;78;51236;-76
2023/07/13 00:37:39;;;;;;;;;;;;;;;27.02;38.91;100624.83;2265414;78;51481;-75
2023/07/13 00:40:41;;;;;;;;;;;;;;;27.01;38.90;100621.02;2265087;78;51451;-75
2023/07/13 00:43:42;;;;;;;;;;;;;;;27.00;38.83;100625.62;2265369;77;51466;-75
2023/07/13 00:46:44;;;;;;;;;;;;;;;27.00;38.78;100631.05;2208736;78;51193;-75
2023/07/13 00:49:45;;;;;;;;;;;;;;;27.00;38.84;100626.98;2277714;77;51509;-75
2023/07/13 00:52:49;;;;;;;;;;;;;;;26.99;38.81;100626.67;2263659;77;51377;-74
2023/07/13 00:55:50;;;;;;;;;;;;;;;26.99;38.67;100623.13;2300992;77;50618;-75
2023/07/13 00:58:52;;;;;;;;;;;;;;;26.98;38.62;100625.03;2301551;77;52375;-74
2023/07/13 01:01:53;;;;;;;;;;;;;;;26.97;38.60;100627.44;2305173;77;51620;-74
2023/07/13 01:04:56;;;;;;;;;;;;;;;26.96;38.61;100632.59;2302748;77;50792;-75
2023/07/13 01:07:58;;;;;;;;;;;;;;;26.96;38.72;100627.16;2301070;77;51465;-75
2023/07/13 01:10:59;;;;;;;;;;;;;;;26.96;38.69;100630.41;2267878;77;51171;-75
2023/07/13 01:14:01;;;;;;;;;;;;;;;26.97;38.70;100633.41;2301366;77;50369;-75
2023/07/13 01:17:03;;;;;;;;;;;;;;;26.95;38.71;100624.16;2303959;77;50304;-75
2023/07/13 01:20:05;;;;;;;;;;;;;;;26.96;38.76;100632.59;2295873;77;50846;-75
2023/07/13 01:23:07;;;;;;;;;;;;;;;26.94;38.66;100634.70;2210476;78;50345;-75
2023/07/13 01:26:09;;;;;;;;;;;;;;;26.95;38.56;100643.17;2264914;78;50662;-75
2023/07/13 01:29:10;;;;;;;;;;;;;;;26.93;38.69;100643.39;2265323;78;50735;-75
2023/07/13 01:32:13;;;;;;;;;;;;;;;26.93;38.57;100636.61;2268171;78;51458;-76
2023/07/13 01:35:16;;;;;;;;;;;;;;;26.94;38.61;100634.70;2259481;78;51759;-76
2023/07/13 01:38:19;;;;;;;;;;;;;;;26.96;38.58;100630.41;2233017;78;51584;-76
2023/07/13 01:41:21;;;;;;;;;;;;;;;26.93;38.62;100624.38;2264898;78;50477;-76
2023/07/13 01:44:23;;;;;;;;;;;;;;;26.93;38.63;100623.56;2232687;78;51533;-76
2023/07/13 01:47:26;;;;;;;;;;;;;;;26.94;38.67;100637.42;2256752;77;52456;-76
2023/07/13 01:50:27;;;;;;;;;;;;;;;26.94;38.60;100637.42;2278967;77;50444;-76
2023/07/13 01:53:29;;;;;;;;;;;;;;;26.92;38.67;100628.69;2301039;77;50286;-77
2023/07/13 01:56:30;;;;;;;;;;;;;;;26.92;38.66;100622.75;2267596;77;50344;-76
2023/07/13 01:59:33;;;;;;;;;;;;;;;26.92;38.64;100617.31;2243018;77;51219;-76
2023/07/13 02:02:35;;;;;;;;;;;;;;;26.93;38.61;100623.56;2301298;77;51514;-76
2023/07/13 02:05:36;;;;;;;;;;;;;;;26.93;38.71;100627.64;2267716;77;51584;-75
2023/07/13 02:08:38;;;;;;;;;;;;;;;26.91;38.69;100634.66;2267794;77;52087;-75
2023/07/13 02:11:40;;;;;;;;;;;;;;;26.90;38.80;100624.87;2267982;77;52565;-75
2023/07/13 02:14:41;;;;;;;;;;;;;;;26.91;38.64;100628.41;2301320;77;51619;-77
2023/07/13 02:17:43;;;;;;;;;;;;;;;26.90;38.77;100628.13;2265602;77;51509;-76
2023/07/13 02:20:45;;;;;;;;;;;;;;;26.90;38.76;100630.30;2249582;77;51472;-76
2023/07/13 02:23:46;;;;;;;;;;;;;;;26.89;38.82;100627.27;2267724;77;52552;-76
2023/07/13 02:26:48;;;;;;;;;;;;;;;26.88;38.65;100614.77;2300987;77;51466;-75
2023/07/13 02:29:51;;;;;;;;;;;;;;;26.90;38.67;100602.33;2301328;77;51509;-74
2023/07/13 02:32:52;;;;;;;;;;;;;;;26.88;38.65;100602.55;2268226;77;50301;-75
2023/07/13 02:35:55;;;;;;;;;;;;;;;26.88;38.68;100603.91;2267493;77;51171;-75
2023/07/13 02:38:57;;;;;;;;;;;;;;;26.87;38.71;100596.00;2267823;77;51509;-75
2023/07/13 02:41:58;;;;;;;;;;;;;;;26.88;38.72;100608.52;2267604;77;52143;-75
2023/07/13 02:45:00;;;;;;;;;;;;;;;26.87;38.67;100619.08;2301204;77;50253;-75
2023/07/13 02:48:01;;;;;;;;;;;;;;;26.86;38.79;100623.69;2261850;77;49973;-75
2023/07/13 02:51:03;;;;;;;;;;;;;;;26.85;38.70;100624.76;2253970;77;50669;-75
2023/07/13 02:54:04;;;;;;;;;;;;;;;26.85;38.67;100628.02;2267746;77;49259;-75
2023/07/13 02:57:08;;;;;;;;;;;;;;;26.84;38.67;100625.81;2267763;77;50388;-74
2023/07/13 03:00:11;;;;;;;;;;;;;;;26.85;38.60;100635.62;2267711;77;51505;-76
2023/07/13 03:03:13;;;;;;;;;;;;;;;26.83;38.74;100628.78;2301285;77;50436;-76
2023/07/13 03:06:15;;;;;;;;;;;;;;;26.82;38.74;100644.25;2300853;77;50731;-75
2023/07/13 03:09:16;;;;;;;;;;;;;;;26.82;38.72;100651.03;2267992;77;49833;-76
2023/07/13 03:12:18;;;;;;;;;;;;;;;26.82;38.66;100656.47;2267715;77;51660;-75
2023/07/13 03:15:20;;;;;;;;;;;;;;;26.82;38.66;100643.40;2301085;77;50591;-75
2023/07/13 03:18:21;;;;;;;;;;;;;;;26.81;38.68;100649.91;2291086;77;51487;-76
2023/07/13 03:21:23;;;;;;;;;;;;;;;26.82;38.65;100651.55;2288426;77;51356;-76
2023/07/13 03:24:25;;;;;;;;;;;;;;;26.79;38.65;100648.77;2267688;77;52310;-75
2023/07/13 03:27:27;;;;;;;;;;;;;;;26.80;38.68;100657.23;2268006;77;50688;-76
2023/07/13 03:30:28;;;;;;;;;;;;;;;26.79;38.63;100654.73;2301226;77;51505;-76
2023/07/13 03:33:30;;;;;;;;;;;;;;;26.78;38.65;100660.70;2301119;77;51493;-76
2023/07/13 03:36:32;;;;;;;;;;;;;;;26.78;38.64;100655.81;2267346;77;52541;-76
2023/07/13 03:39:34;;;;;;;;;;;;;;;26.78;38.58;100667.49;2268202;77;51525;-76
2023/07/13 03:42:35;;;;;;;;;;;;;;;26.76;38.58;100665.55;2267851;77;50615;-76
2023/07/13 03:45:39;;;;;;;;;;;;;;;26.75;38.70;100661.72;2301048;77;50311;-76
2023/07/13 03:48:42;;;;;;;;;;;;;;;26.76;38.57;100663.36;2255121;77;51266;-75
2023/07/13 03:51:44;;;;;;;;;;;;;;;26.75;38.68;100669.87;2253805;78;50268;-75
2023/07/13 03:54:45;;;;;;;;;;;;;;;26.73;38.61;100670.09;2264958;78;50725;-76
2023/07/13 03:57:48;;;;;;;;;;;;;;;26.73;38.59;100672.81;2232638;78;51420;-75
2023/07/13 04:00:50;;;;;;;;;;;;;;;26.73;38.63;100673.34;2233160;78;51219;-74
2023/07/13 04:03:52;;;;;;;;;;;;;;;26.74;38.60;100683.12;2264888;78;51556;-75
2023/07/13 04:06:53;;;;;;;;;;;;;;;26.72;38.61;100676.59;2264596;78;51535;-74
2023/07/13 04:09:55;;;;;;;;;;;;;;;26.71;38.63;100677.64;2265004;78;51327;-75
2023/07/13 04:12:57;;;;;;;;;;;;;;;26.71;38.62;100675.75;2208590;78;51724;-75
2023/07/13 04:15:58;;;;;;;;;;;;;;;26.70;38.64;100678.72;2232740;78;51621;-75
2023/07/13 04:19:00;;;;;;;;;;;;;;;26.70;38.61;100677.36;2277003;77;51432;-76
2023/07/13 04:22:02;;;;;;;;;;;;;;;26.69;38.66;100679.25;2264844;78;52068;-75
2023/07/13 04:25:05;;;;;;;;;;;;;;;26.69;38.64;100681.12;2208641;78;52357;-75
2023/07/13 04:28:06;;;;;;;;;;;;;;;26.69;38.73;100683.33;2232912;78;51511;-75
2023/07/13 04:31:08;;;;;;;;;;;;;;;26.70;38.70;100686.86;2233836;78;51442;-75
2023/07/13 04:34:09;;;;;;;;;;;;;;;26.68;38.76;100682.19;2266350;78;51401;-75
2023/07/13 04:37:11;;;;;;;;;;;;;;;26.68;38.84;100684.37;2233676;78;50390;-76
2023/07/13 04:40:13;;;;;;;;;;;;;;;26.67;38.86;100685.45;2265044;78;50710;-76
2023/07/13 04:43:14;;;;;;;;;;;;;;;26.66;38.92;100690.56;2232332;78;50222;-76
2023/07/13 04:46:18;;;;;;;;;;;;;;;26.66;38.95;100696.52;2264607;78;50626;-75
2023/07/13 04:49:19;;;;;;;;;;;;;;;26.66;38.95;100701.41;2245221;77;51871;-76
2023/07/13 04:52:21;;;;;;;;;;;;;;;26.68;39.02;100704.73;2264661;77;51451;-76
2023/07/13 04:55:22;;;;;;;;;;;;;;;26.66;39.14;100705.48;2267900;77;49695;-75
2023/07/13 04:58:24;;;;;;;;;;;;;;;26.65;39.25;100704.39;2300942;77;51539;-76
2023/07/13 05:01:26;;;;;;;;;;;;;;;26.69;39.28;100710.98;2262559;76;51889;-77
2023/07/13 05:04:28;;;;;;;;;;;;;;;26.73;39.28;100707.28;2303362;77;50029;-77
2023/07/13 05:07:29;;;;;;;;;;;;;;;26.76;39.29;100718.48;2334755;76;52085;-77
2023/07/13 05:10:31;;;;;;;;;;;;;;;26.80;39.15;100727.00;2331087;76;50667;-77
2023/07/13 05:13:33;;;;;;;;;;;;;;;26.82;39.10;100728.92;2265053;78;51463;-76
2023/07/13 05:16:34;;;;;;;;;;;;;;;26.84;38.99;100728.98;2279117;76;50481;-77
2023/07/13 05:19:36;;;;;;;;;;;;;;;26.87;39.08;100720.38;2305589;76;52284;-77
2023/07/13 05:22:37;;;;;;;;;;;;;;;26.92;39.05;100723.22;2233269;78;51464;-76
2023/07/13 05:25:39;;;;;;;;;;;;;;;26.99;38.91;100728.50;2208748;78;50094;-77
2023/07/13 05:28:42;;;;;;;;;;;;;;;27.03;38.88;100727.52;2232619;78;50367;-77
2023/07/13 05:31:43;;;;;;;;;;;;;;;27.07;38.83;100724.06;2269869;77;51533;-77
2023/07/13 05:34:45;;;;;;;;;;;;;;;27.11;38.72;100726.61;2302086;76;52361;-77
2023/07/13 05:37:46;;;;;;;;;;;;;;;27.14;38.53;100720.70;2243999;78;50631;-76
2023/07/13 05:40:48;;;;;;;;;;;;;;;27.18;38.45;100736.03;2244139;78;51369;-76
2023/07/13 05:43:50;;;;;;;;;;;;;;;27.21;38.37;100730.66;2244449;78;50751;-77
2023/07/13 05:46:51;;;;;;;;;;;;;;;27.24;38.33;100734.25;2265844;76;50211;-74
2023/07/13 05:49:53;;;;;;;;;;;;;;;27.29;38.21;100741.14;2256076;77;51665;-75
2023/07/13 05:52:56;;;;;;;;;;;;;;;27.33;38.15;100732.80;2265059;78;50353;-76
2023/07/13 05:55:58;;;;;;;;;;;;;;;27.36;38.15;100737.77;2265251;78;50761;-77
2023/07/13 05:58:59;;;;;;;;;;;;;;;27.40;38.19;100740.83;2265033;78;51502;-77
2023/07/13 06:02:01;;;;;;;;;;;;;;;27.44;38.12;100740.11;2254969;77;51406;-76
2023/07/13 06:05:02;;;;;;;;;;;;;;;27.49;38.02;100740.22;2274545;76;50626;-76
2023/07/13 06:08:04;;;;;;;;;;;;;;;27.54;37.92;100740.83;2342525;76;50060;-76
2023/07/13 06:11:07;;;;;;;;;;;;;;;27.56;37.87;100743.59;2342808;76;51116;-77
2023/07/13 06:14:09;;;;;;;;;;;;;;;27.63;37.82;100744.02;2264237;76;51298;-77
2023/07/13 06:17:10;;;;;;;;;;;;;;;27.63;37.77;100740.75;2290529;77;50775;-76
2023/07/13 06:20:12;;;;;;;;;;;;;;;27.67;37.67;100740.58;2249202;77;50241;-78
2023/07/13 06:23:13;;;;;;;;;;;;;;;27.68;37.60;100739.50;2246704;77;50613;-77
2023/07/13 06:26:15;;;;;;;;;;;;;;;27.72;37.54;100740.67;2278427;77;52532;-78
2023/07/13 06:29:17;;;;;;;;;;;;;;;27.75;37.45;100731.20;2268497;77;50553;-77
2023/07/13 06:32:18;;;;;;;;;;;;;;;27.77;37.36;100735.34;2296461;77;50649;-78
2023/07/13 06:35:20;;;;;;;;;;;;;;;27.80;37.39;100727.23;2236253;78;50660;-77
2023/07/13 06:38:21;;;;;;;;;;;;;;;27.81;37.37;100732.98;2231191;78;52553;-78
2023/07/13 06:41:25;;;;;;;;;;;;;;;27.86;37.26;100733.08;2290471;77;50481;-78
2023/07/13 06:44:26;;;;;;;;;;;;;;;27.86;37.25;100738.52;2269592;77;22307;-77
2023/07/13 06:47:28;;;;;;;;;;;;;;;27.92;37.20;100740.78;2303007;77;50702;-77
2023/07/13 06:50:31;;;;;;;;;;;;;;;27.93;37.16;100736.48;2245470;77;51994;-77
2023/07/13 06:53:32;;;;;;;;;;;;;;;27.95;37.13;100752.53;2303502;77;50765;-77
2023/07/13 06:56:34;;;;;;;;;;;;;;;27.97;37.07;100743.60;2269154;77;51152;-78
2023/07/13 06:59:35;;;;;;;;;;;;;;;28.10;36.68;100746.02;2301344;77;51524;-77
2023/07/13 07:02:37;;;;;;;;;;;;;;;28.21;36.24;100741.61;2302241;77;51414;-78
2023/07/13 07:05:38;;;;;;;;;;;;;;;28.09;36.35;100738.94;2284397;76;49869;-77
2023/07/13 07:08:40;;;;;;;;;;;;;;;28.05;36.25;100739.66;2316578;75;50386;-76
2023/07/13 07:11:42;;;;;;;;;;;;;;;27.94;36.10;100740.84;2349960;75;50195;-77
2023/07/13 07:14:43;;;;;;;;;;;;;;;27.86;36.08;100734.97;2293278;75;51128;-76
2023/07/13 07:17:45;;;;;;;;;;;;;;;27.82;36.07;100739.23;2318738;75;50231;-76
2023/07/13 07:20:46;;;;;;;;;;;;;;;27.71;36.15;100736.83;2318703;75;50670;-76
2023/07/13 07:23:48;;;;;;;;;;;;;;;27.72;36.07;100739.31;2351674;75;50615;-77
2023/07/13 07:26:50;;;;;;;;;;;;;;;27.62;36.22;100742.34;2293341;75;51682;-77
2023/07/13 07:29:51;;;;;;;;;;;;;;;27.63;36.21;100738.58;2319657;75;51516;-77
2023/07/13 07:32:53;;;;;;;;;;;;;;;27.64;35.97;100736.13;2307562;75;51401;-77
2023/07/13 07:35:54;;;;;;;;;;;;;;;27.62;35.80;100743.70;2234161;78;51521;-77
2023/07/13 07:38:56;;;;;;;;;;;;;;;27.55;35.87;100741.96;2231705;78;51843;-77
2023/07/13 07:41:58;;;;;;;;;;;;;;;27.44;36.07;100744.19;2265623;78;51400;-77
2023/07/13 07:45:00;;;;;;;;;;;;;;;27.49;36.23;100744.83;2265483;78;50631;-77
2023/07/13 07:48:02;;;;;;;;;;;;;;;27.58;35.99;100742.83;2265310;78;50341;-77
2023/07/13 07:51:03;;;;;;;;;;;;;;;27.57;35.76;100745.27;2231936;78;51664;-76
2023/07/13 07:54:05;;;;;;;;;;;;;;;27.49;35.85;100749.73;2265410;77;50273;-77
2023/07/13 07:57:08;;;;;;;;;;;;;;;27.39;36.10;100745.44;2265441;78;50480;-78
2023/07/13 08:00:10;;;;;;;;;;;;;;;27.48;35.96;100742.63;2256350;78;50686;-77
2023/07/13 08:03:11;;;;;;;;;;;;;;;27.34;36.15;100744.80;2246257;77;50926;-77
2023/07/13 08:06:13;;;;;;;;;;;;;;;27.27;36.36;100752.78;2301349;77;49969;-76
2023/07/13 08:09:14;;;;;;;;;;;;;;;27.20;36.33;100751.53;2301417;77;50328;-77
2023/07/13 08:12:16;;;;;;;;;;;;;;;27.13;36.67;100753.01;2301559;77;50556;-77
2023/07/13 08:15:20;;;;;;;;;;;;;;;27.07;37.00;100760.73;2301450;77;50083;-76
2023/07/13 08:18:21;;;;;;;;;;;;;;;27.04;37.08;100759.85;2301388;77;22511;-76
2023/07/13 08:21:23;;;;;;;;;;;;;;;27.00;36.98;100760.05;2268116;77;50790;-77
2023/07/13 08:24:24;;;;;;;;;;;;;;;26.95;36.83;100757.22;2268354;77;50206;-78
2023/07/13 08:27:27;;;;;;;;;;;;;;;26.93;36.84;100758.80;2301732;77;50666;-77
2023/07/13 08:30:28;;;;;;;;;;;;;;;26.87;36.93;100761.11;2268571;77;52395;-78
2023/07/13 08:33:30;;;;;;;;;;;;;;;26.87;36.89;100761.62;2286311;77;51507;-77
2023/07/13 08:36:31;;;;;;;;;;;;;;;26.84;36.86;100770.23;2301971;77;50635;-78
2023/07/13 08:39:33;;;;;;;;;;;;;;;26.83;36.49;100764.52;2268064;77;50313;-77
2023/07/13 08:42:46;;;;;;;;;;;;;;;26.65;36.56;100774.42;2267957;77;52358;-77
2023/07/13 08:45:49;;;;;;;;;;;;;;;26.68;36.48;100772.59;2301507;77;51565;-76
2023/07/13 08:48:52;;;;;;;;;;;;;;;26.62;36.69;100765.39;2301210;77;50117;-77
2023/07/13 08:51:56;;;;;;;;;;;;;;;26.60;36.76;100768.86;2301700;77;51585;-78
2023/07/13 08:54:57;;;;;;;;;;;;;;;26.52;36.91;100780.06;2301206;77;50855;-76
2023/07/13 08:58:10;;;;;;;;;;;;;;;26.52;37.01;100777.35;2300894;75;51507;-77
2023/07/13 09:01:13;;;;;;;;;;;;;;;26.55;37.04;100776.06;2292673;77;50344;-76
2023/07/13 09:04:16;;;;;;;;;;;;;;;26.56;37.05;100778.52;2289398;76;51563;-77
2023/07/13 09:07:29;;;;;;;;;;;;;;;26.46;37.33;100776.88;2267423;77;52551;-77
2023/07/13 09:10:31;;;;;;;;;;;;;;;26.53;37.33;100779.53;2301099;77;50583;-77
2023/07/13 09:13:38;;;;;;;;;;;;;;;26.58;37.14;100781.02;2267762;77;52440;-77
2023/07/13 09:16:40;;;;;;;;;;;;;;;26.61;37.08;100780.00;2300992;77;50350;-77
2023/07/13 09:19:41;;;;;;;;;;;;;;;26.62;36.50;100784.39;2267459;77;52629;-75
2023/07/13 09:22:43;;;;;;;;;;;;;;;26.49;36.38;100784.58;2301055;77;52067;-76
2023/07/13 09:25:45;;;;;;;;;;;;;;;26.60;36.39;100779.72;2300978;77;51569;-76
2023/07/13 09:28:49;;;;;;;;;;;;;;;26.60;36.21;100782.44;2300831;77;51563;-76
2023/07/13 09:31:52;;;;;;;;;;;;;;;26.65;35.85;100780.38;2261758;77;52459;-76
2023/07/13 09:34:54;;;;;;;;;;;;;;;26.65;35.79;100777.13;2282321;77;51448;-77
2023/07/13 09:37:59;;;;;;;;;;;;;;;26.56;34.77;100769.02;2264853;78;50790;-77
2023/07/13 09:41:08;;;;;;;;;;;;;;;26.51;34.63;100771.58;2264982;78;50333;-76
2023/07/13 09:44:10;;;;;;;;;;;;;;;26.43;34.23;100775.98;2264664;78;22405;-77
2023/07/13 09:47:17;;;;;;;;;;;;;;;26.35;34.06;100788.00;2264595;78;50319;-76
2023/07/13 09:50:18;;;;;;;;;;;;;;;26.41;33.97;100786.24;2264030;78;51523;-75
2023/07/13 09:53:20;;;;;;;;;;;;;;;26.34;34.11;100785.54;2264703;78;50424;-76
2023/07/13 09:56:22;;;;;;;;;;;;;;;26.36;34.24;100779.33;2208303;78;51338;-76
2023/07/13 09:59:25;;;;;;;;;;;;;;;26.23;34.54;100779.84;2232357;78;51573;-76
2023/07/13 10:02:32;;;;;;;;;;;;;;;26.36;34.46;100777.47;2286103;75;50869;-75
2023/07/13 10:05:41;;;;;;;;;;;;;;;26.38;34.20;100776.68;2298791;77;51557;-75
2023/07/13 10:08:44;;;;;;;;;;;;;;;26.28;34.44;100792.19;2310115;77;51548;-75
2023/07/13 10:11:45;;;;;;;;;;;;;;;26.25;34.63;100788.55;2279697;77;50714;-75
2023/07/13 10:14:47;;;;;;;;;;;;;;;26.36;34.92;100787.47;2280019;77;50271;-74
2023/07/13 10:17:48;;;;;;;;;;;;;;;26.45;34.99;100791.52;2310818;77;50297;-76
2023/07/13 10:20:51;;;;;;;;;;;;;;;26.49;34.94;100779.15;2279761;77;51103;-74
2023/07/13 10:23:58;;;;;;;;;;;;;;;26.52;34.94;100774.64;2311134;77;51559;-75
2023/07/13 10:27:08;;;;;;;;;;;;;;;26.55;34.98;100771.98;2311059;77;51536;-76
2023/07/13 10:30:13;;;;;;;;;;;;;;;26.56;34.92;100771.73;2310749;77;51662;-75
2023/07/13 10:33:15;;;;;;;;;;;;;;;26.58;34.89;100772.87;2265007;77;52477;-75
2023/07/13 10:36:37;;;;;;;;;;;;;;;26.59;34.91;100782.15;2265826;77;51612;-74
2023/07/13 10:39:39;;;;;;;;;;;;;;;26.58;34.90;100779.12;2264589;78;51595;-75
2023/07/13 10:42:41;;;;;;;;;;;;;;;26.64;34.94;100782.27;2264664;78;51662;-75
2023/07/13 10:45:43;;;;;;;;;;;;;;;26.67;35.05;100781.80;2291485;75;51151;-75
2023/07/13 10:48:45;;;;;;;;;;;;;;;26.68;35.09;100782.09;2350728;75;51564;-75
2023/07/13 10:51:47;;;;;;;;;;;;;;;26.71;35.03;100784.86;2351132;75;50155;-75
2023/07/13 10:54:49;;;;;;;;;;;;;;;26.73;35.05;100787.36;2318692;75;51566;-75
2023/07/13 10:57:51;;;;;;;;;;;;;;;26.75;35.11;100787.95;2292787;75;52673;-75
2023/07/13 11:01:09;;;;;;;;;;;;;;;26.78;35.09;100784.77;2350475;75;50276;-75
2023/07/13 11:04:12;;;;;;;;;;;;;;;26.79;35.11;100780.98;2280331;77;51707;-75
2023/07/13 11:07:24;;;;;;;;;;;;;;;26.78;35.14;100777.98;2264771;78;51558;-75
2023/07/13 11:10:33;;;;;;;;;;;;;;;26.78;35.16;100776.63;2208858;78;52538;-76
2023/07/13 11:13:37;;;;;;;;;;;;;;;26.78;35.13;100772.55;2257712;78;50707;-76
2023/07/13 11:16:40;;;;;;;;;;;;;;;26.78;35.09;100761.69;2264885;78;50516;-75
2023/07/13 11:19:42;;;;;;;;;;;;;;;26.77;35.00;100772.23;2263129;78;51514;-75
2023/07/13 11:22:44;;;;;;;;;;;;;;;26.78;34.84;100772.55;2232536;78;51078;-76
2023/07/13 11:25:46;;;;;;;;;;;;;;;26.77;34.83;100766.30;2264981;78;50713;-76
2023/07/13 11:28:47;;;;;;;;;;;;;;;26.79;34.77;100766.05;2264776;78;51556;-76
2023/07/13 11:31:53;;;;;;;;;;;;;;;26.78;34.78;100776.63;2237539;77;50279;-76
2023/07/13 11:34:54;;;;;;;;;;;;;;;26.79;34.70;100764.69;2288789;77;51452;-76
2023/07/13 11:37:56;;;;;;;;;;;;;;;26.80;34.71;100766.36;2301036;77;51550;-77
2023/07/13 11:40:58;;;;;;;;;;;;;;;26.81;34.56;100758.50;2301232;77;51450;-76
2023/07/13 11:44:14;;;;;;;;;;;;;;;26.80;34.47;100759.58;2301241;77;50694;-76
2023/07/13 11:47:17;;;;;;;;;;;;;;;26.80;34.51;100755.50;2267403;77;51740;-76
2023/07/13 11:50:20;;;;;;;;;;;;;;;26.80;34.40;100760.94;2301217;77;50179;-76
2023/07/13 11:53:21;;;;;;;;;;;;;;;26.79;34.34;100764.15;2301074;77;50806;-76
2023/07/13 11:56:23;;;;;;;;;;;;;;;26.80;34.30;100754.14;2300854;77;50177;-76
2023/07/13 11:59:25;;;;;;;;;;;;;;;26.80;34.25;100751.43;2267772;77;51742;-75
2023/07/13 12:02:30;;;;;;;;;;;;;;;26.80;34.26;100758.22;2264984;77;50118;-76
2023/07/13 12:05:32;;;;;;;;;;;;;;;26.81;34.33;100758.50;2290588;77;50285;-75
2023/07/13 12:08:40;;;;;;;;;;;;;;;26.81;34.35;100763.39;2302712;77;51549;-74
2023/07/13 12:11:42;;;;;;;;;;;;;;;26.82;34.39;100762.86;2269760;77;52490;-76
2023/07/13 12:14:44;;;;;;;;;;;;;;;26.84;34.42;100756.66;2269859;77;49359;-76
2023/07/13 12:17:46;;;;;;;;;;;;;;;26.85;34.45;100752.91;2302806;77;50358;-76
2023/07/13 12:20:48;;;;;;;;;;;;;;;26.86;34.50;100752.66;2302914;77;50002;-76
2023/07/13 12:23:49;;;;;;;;;;;;;;;26.86;34.57;100747.76;2269180;77;52362;-76
2023/07/13 12:26:52;;;;;;;;;;;;;;;26.87;34.53;100743.97;2269197;77;51440;-76
2023/07/13 12:29:55;;;;;;;;;;;;;;;26.87;34.57;100755.68;2303026;76;51565;-77
2023/07/13 12:32:58;;;;;;;;;;;;;;;26.87;34.61;100750.76;2297261;77;50033;-76
2023/07/13 12:36:03;;;;;;;;;;;;;;;26.87;34.68;100750.76;2238288;78;51767;-75
2023/07/13 12:39:06;;;;;;;;;;;;;;;26.88;34.73;100748.36;2264902;78;51331;-75
2023/07/13 12:42:26;;;;;;;;;;;;;;;26.92;34.70;100752.23;2263958;78;51438;-75
2023/07/13 12:45:28;;;;;;;;;;;;;;;26.91;34.70;100751.95;2265336;77;23015;-77
2023/07/13 12:48:29;;;;;;;;;;;;;;;26.91;34.76;100754.12;2232506;78;49636;-76
2023/07/13 12:51:31;;;;;;;;;;;;;;;26.91;34.74;100750.05;2232598;78;50207;-75
2023/07/13 12:54:32;;;;;;;;;;;;;;;26.90;34.78;100755.20;2274901;77;50701;-76
2023/07/13 12:57:37;;;;;;;;;;;;;;;26.90;34.87;100750.31;2269349;77;51468;-75
2023/07/13 13:00:39;;;;;;;;;;;;;;;26.94;34.85;100754.19;2269112;77;52613;-76
2023/07/13 13:03:54;;;;;;;;;;;;;;;26.93;34.79;100755.27;2302789;77;51715;-76
2023/07/13 13:07:03;;;;;;;;;;;;;;;26.95;34.86;100750.42;2300691;77;51647;-76
2023/07/13 13:10:06;;;;;;;;;;;;;;;26.98;34.78;100759.45;2267180;77;53768;-76
2023/07/13 13:13:08;;;;;;;;;;;;;;;26.96;34.92;100760.22;2269431;77;51860;-75
2023/07/13 13:16:11;;;;;;;;;;;;;;;26.96;34.93;100754.78;2310698;76;50889;-76
2023/07/13 13:19:17;;;;;;;;;;;;;;;26.96;34.89;100749.35;2325074;76;51410;-76
2023/07/13 13:22:20;;;;;;;;;;;;;;;26.96;34.90;100756.14;2342790;76;50784;-76
2023/07/13 13:25:22;;;;;;;;;;;;;;;26.97;34.92;100746.92;2341472;76;50352;-74
2023/07/13 13:28:24;;;;;;;;;;;;;;;26.98;34.85;100743.70;2341340;76;51606;-76
2023/07/13 13:31:26;;;;;;;;;;;;;;;26.98;34.75;100754.02;2299675;75;51511;-76
2023/07/13 13:34:27;;;;;;;;;;;;;;;26.99;34.76;100754.84;2316045;76;50789;-76
2023/07/13 13:37:29;;;;;;;;;;;;;;;27.01;34.92;100750.01;2255683;77;50189;-77
2023/07/13 13:40:30;;;;;;;;;;;;;;;27.01;34.80;100763.05;2299240;77;50619;-77
2023/07/13 13:43:32;;;;;;;;;;;;;;;27.00;34.64;100750.55;2301673;77;50410;-76
2023/07/13 13:46:34;;;;;;;;;;;;;;;27.02;34.64;100753.83;2267218;76;50103;-76
2023/07/13 13:49:36;;;;;;;;;;;;;;;27.01;34.63;100749.47;2245766;77;51576;-76
2023/07/13 13:52:37;;;;;;;;;;;;;;;27.01;34.63;100759.51;2253857;76;50870;-77
2023/07/13 13:55:41;;;;;;;;;;;;;;;27.01;34.62;100752.19;2254146;77;50308;-76
2023/07/13 13:58:43;;;;;;;;;;;;;;;27.04;34.43;100760.39;2235564;78;51882;-78
2023/07/13 14:01:49;;;;;;;;;;;;;;;27.04;34.44;100755.78;2258453;78;49923;-77
2023/07/13 14:05:00;;;;;;;;;;;;;;;27.02;34.34;100760.61;2235876;77;50698;-77
2023/07/13 14:08:02;;;;;;;;;;;;;;;26.99;34.38;100758.38;2265606;78;50790;-76
2023/07/13 14:11:05;;;;;;;;;;;;;;;26.99;34.20;100762.98;2247058;77;51541;-76
2023/07/13 14:14:09;;;;;;;;;;;;;;;27.00;34.14;100755.97;2270486;77;51801;-77
2023/07/13 14:17:18;;;;;;;;;;;;;;;26.96;34.13;100756.14;2268668;77;51660;-77
2023/07/13 14:20:23;;;;;;;;;;;;;;;26.97;34.15;100759.67;2294334;77;51417;-77
2023/07/13 14:23:26;;;;;;;;;;;;;;;26.99;34.17;100773.31;2265737;77;50691;-77
2023/07/13 14:26:30;;;;;;;;;;;;;;;26.99;34.13;100763.81;2240562;77;51795;-77
2023/07/13 14:29:33;;;;;;;;;;;;;;;27.01;34.10;100763.05;2302467;77;22296;-77
2023/07/13 14:32:36;;;;;;;;;;;;;;;27.00;34.07;100765.98;2282264;77;50811;-76
2023/07/13 14:35:42;;;;;;;;;;;;;;;27.00;34.15;100764.12;2270099;77;51546;-76
2023/07/13 14:38:53;;;;;;;;;;;;;;;27.01;34.19;100758.97;2233917;78;50695;-76
2023/07/13 14:41:59;;;;;;;;;;;;;;;26.99;34.18;100751.59;2264208;78;22435;-76
2023/07/13 14:45:03;;;;;;;;;;;;;;;27.00;34.15;100766.84;2300455;77;22091;-77
2023/07/13 14:48:08;;;;;;;;;;;;;;;27.02;34.20;100767.94;2284336;77;50681;-76
2023/07/13 14:51:14;;;;;;;;;;;;;;;27.06;34.08;100775.39;2295807;77;51603;-77
2023/07/13 14:54:15;;;;;;;;;;;;;;;27.03;34.07;100771.79;2250229;78;22445;-77
2023/07/13 14:57:21;;;;;;;;;;;;;;;27.04;34.18;100758.49;2240364;78;52483;-76
2023/07/13 15:00:24;;;;;;;;;;;;;;;27.07;34.23;100765.34;2266027;78;22270;-77
2023/07/13 15:03:25;;;;;;;;;;;;;;;27.07;34.23;100772.95;2277819;76;22436;-76
2023/07/13 15:06:28;;;;;;;;;;;;;;;27.08;34.26;100775.16;2295413;77;51581;-76
2023/07/13 15:09:29;;;;;;;;;;;;;;;27.10;34.29;100757.56;2268207;77;51489;-77
2023/07/13 15:12:31;;;;;;;;;;;;;;;27.09;34.32;100751.81;2301698;77;51529;-76
2023/07/13 15:15:33;;;;;;;;;;;;;;;27.09;34.32;100757.25;2208997;78;52607;-76
2023/07/13 15:18:39;;;;;;;;;;;;;;;27.08;34.37;100761.05;2276292;75;50317;-76
2023/07/13 15:21:38;;;;;;;;;;;;;;;27.08;34.40;100759.69;2290190;77;22404;-77
2023/07/13 15:24:40;;;;;;;;;;;;;;;27.09;34.35;100758.61;2300284;77;51419;-76
2023/07/13 15:27:41;;;;;;;;;;;;;;;27.10;34.37;100760.28;2243074;78;50991;-77
2023/07/13 15:30:44;;;;;;;;;;;;;;;27.10;34.36;100764.36;2255992;78;51486;-76
2023/07/13 15:33:48;;;;;;;;;;;;;;;27.09;34.34;100768.11;2265245;78;50411;-76
2023/07/13 15:36:49;;;;;;;;;;;;;;;27.11;34.31;100747.52;2265241;78;21960;-77